sensor_id;sensor_type;location;lat;lon;timestamp;P1;durP1;ratioP1;P2;durP2;ratioP2
67685;SDS011;54469;52.090;4.312;2023-01-08T00:00:04;14.3;;;2.1;;
67685;SDS011;54469;52.090;4.312;2023-01-08T00:05:03;4.9;;;1.4;;
67685;SDS011;54469;52.090;4.312;2023-01-08T00:10:02;8.6;;;1.4;;
67685;SDS011;54469;52.090;4.312;2023-01-08T00:15:02;8.6;;;1.4;;
67685;SDS011;54469;52.090;4.312;2023-01-08T00:20:03;8.6;;;1.4;;
67685;SDS011;54469;52.090;4.312;2023-01-08T00:25:03;3.6;;;0.7;;
67685;SDS011;54469;52.090;4.312;2023-01-08T00:30:03;5.7;;;1.1;;
67685;SDS011;54469;52.090;4.312;2023-01-08T00:35:03;5.7;;;1.1;;
67685;SDS011;54469;52.090;4.312;2023-01-08T00:40:03;5.7;;;1.1;;
67685;SDS011;54469;52.090;4.312;2023-01-08T00:45:03;5.7;;;1.1;;
67685;SDS011;54469;52.090;4.312;2023-01-08T00:50:02;5.7;;;1.1;;
67685;SDS011;54469;52.090;4.312;2023-01-08T00:55:02;9.1;;;1.4;;
67685;SDS011;54469;52.090;4.312;2023-01-08T01:00:04;7.1;;;1.3;;
67685;SDS011;54469;52.090;4.312;2023-01-08T01:05:03;7.1;;;1.3;;
67685;SDS011;54469;52.090;4.312;2023-01-08T01:10:03;7.1;;;1.3;;
67685;SDS011;54469;52.090;4.312;2023-01-08T01:15:03;7.1;;;1.3;;
67685;SDS011;54469;52.090;4.312;2023-01-08T01:20:02;14.2;;;1.6;;
67685;SDS011;54469;52.090;4.312;2023-01-08T01:25:02;10.199999999999998;;;1.4;;
67685;SDS011;54469;52.090;4.312;2023-01-08T01:30:02;8.199999999999998;;;1.5;;
67685;SDS011;54469;52.090;4.312;2023-01-08T01:35:02;8.199999999999998;;;1.5;;
67685;SDS011;54469;52.090;4.312;2023-01-08T01:40:03;8.199999999999998;;;1.5;;
67685;SDS011;54469;52.090;4.312;2023-01-08T01:45:03;11.1;;;1.9;;
67685;SDS011;54469;52.090;4.312;2023-01-08T01:50:04;6.8;;;1.2;;
67685;SDS011;54469;52.090;4.312;2023-01-08T01:55:02;3.5;;;1.4;;
67685;SDS011;54469;52.090;4.312;2023-01-08T02:00:03;3.5;;;1.4;;
67685;SDS011;54469;52.090;4.312;2023-01-08T02:05:03;7.5;;;1.4;;
67685;SDS011;54469;52.090;4.312;2023-01-08T02:10:05;7.5;;;1.4;;
67685;SDS011;54469;52.090;4.312;2023-01-08T02:15:04;7.5;;;1.4;;
67685;SDS011;54469;52.090;4.312;2023-01-08T02:20:05;7.5;;;1.4;;
67685;SDS011;54469;52.090;4.312;2023-01-08T02:25:05;7.5;;;1.4;;
67685;SDS011;54469;52.090;4.312;2023-01-08T02:30:02;3;;;1;;
67685;SDS011;54469;52.090;4.312;2023-01-08T02:35:02;3;;;1;;
67685;SDS011;54469;52.090;4.312;2023-01-08T02:40:05;5;;;1.4;;
67685;SDS011;54469;52.090;4.312;2023-01-08T02:45:05;5;;;1.4;;
67685;SDS011;54469;52.090;4.312;2023-01-08T02:50:06;5;;;1.4;;
67685;SDS011;54469;52.090;4.312;2023-01-08T02:55:02;7.4;;;1.1;;
67685;SDS011;54469;52.090;4.312;2023-01-08T03:00:03;5.2;;;1;;
67685;SDS011;54469;52.090;4.312;2023-01-08T03:05:10;5.2;;;1;;
67685;SDS011;54469;52.090;4.312;2023-01-08T03:10:03;5.2;;;1;;
67685;SDS011;54469;52.090;4.312;2023-01-08T03:15:04;5.2;;;1;;
67685;SDS011;54469;52.090;4.312;2023-01-08T03:20:04;5.2;;;1;;
67685;SDS011;54469;52.090;4.312;2023-01-08T03:25:02;5.2;;;1;;
67685;SDS011;54469;52.090;4.312;2023-01-08T03:30:02;5.2;;;1;;
67685;SDS011;54469;52.090;4.312;2023-01-08T03:35:02;5.2;;;1;;
67685;SDS011;54469;52.090;4.312;2023-01-08T03:40:03;5.2;;;1;;
67685;SDS011;54469;52.090;4.312;2023-01-08T03:45:03;8.6;;;1;;
67685;SDS011;54469;52.090;4.312;2023-01-08T03:50:03;3;;;0.7;;
67685;SDS011;54469;52.090;4.312;2023-01-08T03:55:03;5.8;;;1;;
67685;SDS011;54469;52.090;4.312;2023-01-08T04:00:02;10.9;;;1.2;;
67685;SDS011;54469;52.090;4.312;2023-01-08T04:05:02;5;;;0.7;;
67685;SDS011;54469;52.090;4.312;2023-01-08T04:10:02;5;;;0.7;;
67685;SDS011;54469;52.090;4.312;2023-01-08T04:15:02;5;;;0.7;;
67685;SDS011;54469;52.090;4.312;2023-01-08T04:20:02;5;;;0.7;;
67685;SDS011;54469;52.090;4.312;2023-01-08T04:25:02;5;;;0.7;;
67685;SDS011;54469;52.090;4.312;2023-01-08T04:30:03;5;;;0.7;;
67685;SDS011;54469;52.090;4.312;2023-01-08T04:35:03;5;;;0.7;;
67685;SDS011;54469;52.090;4.312;2023-01-08T04:40:03;5;;;0.7;;
67685;SDS011;54469;52.090;4.312;2023-01-08T04:45:03;5;;;0.7;;
67685;SDS011;54469;52.090;4.312;2023-01-08T04:50:02;2.7;;;0.9;;
67685;SDS011;54469;52.090;4.312;2023-01-08T04:55:02;8.300000000000002;;;1;;
67685;SDS011;54469;52.090;4.312;2023-01-08T05:00:03;5.2;;;0.7;;
67685;SDS011;54469;52.090;4.312;2023-01-08T05:05:03;5.2;;;0.7;;
67685;SDS011;54469;52.090;4.312;2023-01-08T05:10:03;8.9;;;1.6;;
67685;SDS011;54469;52.090;4.312;2023-01-08T05:15:08;8.9;;;1.6;;
67685;SDS011;54469;52.090;4.312;2023-01-08T05:20:02;4.2;;;0.8;;
67685;SDS011;54469;52.090;4.312;2023-01-08T05:25:03;6.5;;;1;;
67685;SDS011;54469;52.090;4.312;2023-01-08T05:30:03;8.800000000000002;;;1.1;;
67685;SDS011;54469;52.090;4.312;2023-01-08T05:35:03;8.800000000000002;;;1.1;;
67685;SDS011;54469;52.090;4.312;2023-01-08T05:40:02;8.800000000000002;;;1.1;;
67685;SDS011;54469;52.090;4.312;2023-01-08T05:45:02;8.800000000000002;;;1.1;;
67685;SDS011;54469;52.090;4.312;2023-01-08T05:50:03;8.800000000000002;;;1.1;;
67685;SDS011;54469;52.090;4.312;2023-01-08T05:55:03;3.4;;;0.9;;
67685;SDS011;54469;52.090;4.312;2023-01-08T06:00:03;8.9;;;1.1;;
67685;SDS011;54469;52.090;4.312;2023-01-08T06:05:02;8.9;;;1.1;;
67685;SDS011;54469;52.090;4.312;2023-01-08T06:10:03;8.9;;;1.1;;
67685;SDS011;54469;52.090;4.312;2023-01-08T06:15:03;8.9;;;1.1;;
67685;SDS011;54469;52.090;4.312;2023-01-08T06:20:03;4.4;;;1;;
67685;SDS011;54469;52.090;4.312;2023-01-08T06:25:02;4.4;;;1;;
67685;SDS011;54469;52.090;4.312;2023-01-08T06:30:03;9;;;1.2;;
67685;SDS011;54469;52.090;4.312;2023-01-08T06:35:02;9;;;1.2;;
67685;SDS011;54469;52.090;4.312;2023-01-08T06:40:03;9;;;1.2;;
67685;SDS011;54469;52.090;4.312;2023-01-08T06:45:03;9;;;1.2;;
67685;SDS011;54469;52.090;4.312;2023-01-08T06:50:03;6.6;;;1.2;;
67685;SDS011;54469;52.090;4.312;2023-01-08T06:55:02;4.6;;;1.1;;
67685;SDS011;54469;52.090;4.312;2023-01-08T07:00:02;4.6;;;1.1;;
67685;SDS011;54469;52.090;4.312;2023-01-08T07:05:03;8.699999999999998;;;1.1;;
67685;SDS011;54469;52.090;4.312;2023-01-08T07:10:03;8.699999999999998;;;1.1;;
67685;SDS011;54469;52.090;4.312;2023-01-08T07:15:03;5.5;;;1;;
67685;SDS011;54469;52.090;4.312;2023-01-08T07:20:03;9.699999999999998;;;1.6;;
67685;SDS011;54469;52.090;4.312;2023-01-08T07:25:03;9.699999999999998;;;1.6;;
67685;SDS011;54469;52.090;4.312;2023-01-08T07:30:03;7.6;;;1.2;;
67685;SDS011;54469;52.090;4.312;2023-01-08T07:35:02;7.6;;;1.2;;
67685;SDS011;54469;52.090;4.312;2023-01-08T07:40:03;7.6;;;1.2;;
67685;SDS011;54469;52.090;4.312;2023-01-08T07:45:02;10.9;;;1.2;;
67685;SDS011;54469;52.090;4.312;2023-01-08T07:50:02;10.9;;;1.2;;
67685;SDS011;54469;52.090;4.312;2023-01-08T07:55:03;5.8;;;0.8;;
67685;SDS011;54469;52.090;4.312;2023-01-08T08:00:03;5.8;;;0.8;;
67685;SDS011;54469;52.090;4.312;2023-01-08T08:05:03;5.8;;;0.8;;
67685;SDS011;54469;52.090;4.312;2023-01-08T08:10:03;5.8;;;0.8;;
67685;SDS011;54469;52.090;4.312;2023-01-08T08:15:03;5.8;;;0.8;;
67685;SDS011;54469;52.090;4.312;2023-01-08T08:20:03;5.8;;;0.8;;
67685;SDS011;54469;52.090;4.312;2023-01-08T08:25:03;9;;;1.4;;
67685;SDS011;54469;52.090;4.312;2023-01-08T08:30:03;9;;;1.4;;
67685;SDS011;54469;52.090;4.312;2023-01-08T08:35:03;9;;;1.4;;
67685;SDS011;54469;52.090;4.312;2023-01-08T08:40:03;9;;;1.4;;
67685;SDS011;54469;52.090;4.312;2023-01-08T08:45:03;9;;;1.4;;
67685;SDS011;54469;52.090;4.312;2023-01-08T08:50:02;5.8;;;1.3;;
67685;SDS011;54469;52.090;4.312;2023-01-08T08:55:02;9.6;;;1.4;;
67685;SDS011;54469;52.090;4.312;2023-01-08T09:00:02;6.5;;;1;;
67685;SDS011;54469;52.090;4.312;2023-01-08T09:05:03;11.5;;;1.5;;
67685;SDS011;54469;52.090;4.312;2023-01-08T09:10:03;11.5;;;1.5;;
67685;SDS011;54469;52.090;4.312;2023-01-08T09:15:03;8.800000000000002;;;1.1;;
67685;SDS011;54469;52.090;4.312;2023-01-08T09:20:03;13.8;;;1.9;;
67685;SDS011;54469;52.090;4.312;2023-01-08T09:25:03;6.1;;;1.2;;
67685;SDS011;54469;52.090;4.312;2023-01-08T09:30:03;6.1;;;1.2;;
67685;SDS011;54469;52.090;4.312;2023-01-08T09:35:02;8.9;;;1.3;;
67685;SDS011;54469;52.090;4.312;2023-01-08T09:40:02;6.4;;;1.1;;
67685;SDS011;54469;52.090;4.312;2023-01-08T09:45:03;10;;;1.4;;
67685;SDS011;54469;52.090;4.312;2023-01-08T09:50:04;6.5;;;1.1;;
67685;SDS011;54469;52.090;4.312;2023-01-08T09:55:03;4.5;;;0.8;;
67685;SDS011;54469;52.090;4.312;2023-01-08T10:00:03;4.5;;;0.8;;
67685;SDS011;54469;52.090;4.312;2023-01-08T10:05:09;4.5;;;0.8;;
67685;SDS011;54469;52.090;4.312;2023-01-08T10:10:03;8;;;1.3;;
67685;SDS011;54469;52.090;4.312;2023-01-08T10:15:03;10.9;;;1.4;;
67685;SDS011;54469;52.090;4.312;2023-01-08T10:20:07;10.9;;;1.4;;
67685;SDS011;54469;52.090;4.312;2023-01-08T10:25:02;4.7;;;0.9;;
67685;SDS011;54469;52.090;4.312;2023-01-08T10:30:04;8.199999999999998;;;1.4;;
67685;SDS011;54469;52.090;4.312;2023-01-08T10:35:03;8.199999999999998;;;1.4;;
67685;SDS011;54469;52.090;4.312;2023-01-08T10:40:03;8.199999999999998;;;1.4;;
67685;SDS011;54469;52.090;4.312;2023-01-08T10:45:03;6.1;;;1.3;;
67685;SDS011;54469;52.090;4.312;2023-01-08T10:50:03;6.1;;;1.3;;
67685;SDS011;54469;52.090;4.312;2023-01-08T10:55:19;6.1;;;1.3;;
67685;SDS011;54469;52.090;4.312;2023-01-08T11:00:03;6.1;;;1.3;;
67685;SDS011;54469;52.090;4.312;2023-01-08T11:05:03;3.3;;;1;;
67685;SDS011;54469;52.090;4.312;2023-01-08T11:10:03;3.3;;;1;;
67685;SDS011;54469;52.090;4.312;2023-01-08T11:15:03;5.6;;;1;;
67685;SDS011;54469;52.090;4.312;2023-01-08T11:20:07;5.6;;;1;;
67685;SDS011;54469;52.090;4.312;2023-01-08T11:25:04;2.7;;;1.1;;
67685;SDS011;54469;52.090;4.312;2023-01-08T11:30:04;2.7;;;1.1;;
67685;SDS011;54469;52.090;4.312;2023-01-08T11:35:03;6;;;1.3;;
67685;SDS011;54469;52.090;4.312;2023-01-08T11:40:09;6;;;1.3;;
67685;SDS011;54469;52.090;4.312;2023-01-08T11:45:06;6;;;1.3;;
67685;SDS011;54469;52.090;4.312;2023-01-08T11:50:09;3.4;;;1.3;;
67685;SDS011;54469;52.090;4.312;2023-01-08T11:55:06;7.8;;;1.7;;
67685;SDS011;54469;52.090;4.312;2023-01-08T12:00:09;7.8;;;1.7;;
67685;SDS011;54469;52.090;4.312;2023-01-08T12:05:36;5.5;;;1.4;;
67685;SDS011;54469;52.090;4.312;2023-01-08T12:10:03;5.5;;;1.4;;
67685;SDS011;54469;52.090;4.312;2023-01-08T12:15:04;3.5;;;1;;
67685;SDS011;54469;52.090;4.312;2023-01-08T12:20:06;3.5;;;1;;
67685;SDS011;54469;52.090;4.312;2023-01-08T12:25:18;3.5;;;1;;
67685;SDS011;54469;52.090;4.312;2023-01-08T12:30:06;3.5;;;1;;
67685;SDS011;54469;52.090;4.312;2023-01-08T12:35:04;3.5;;;1;;
67685;SDS011;54469;52.090;4.312;2023-01-08T12:40:04;3.5;;;1;;
67685;SDS011;54469;52.090;4.312;2023-01-08T12:45:02;3.5;;;1;;
67685;SDS011;54469;52.090;4.312;2023-01-08T12:50:06;3.5;;;1;;
67685;SDS011;54469;52.090;4.312;2023-01-08T12:55:03;3.5;;;1;;
67685;SDS011;54469;52.090;4.312;2023-01-08T13:00:05;3.5;;;1;;
67685;SDS011;54469;52.090;4.312;2023-01-08T13:05:12;3.5;;;1;;
67685;SDS011;54469;52.090;4.312;2023-01-08T13:10:04;3.5;;;1;;
67685;SDS011;54469;52.090;4.312;2023-01-08T13:15:03;5.8;;;1.5;;
67685;SDS011;54469;52.090;4.312;2023-01-08T13:20:04;5.8;;;1.5;;
67685;SDS011;54469;52.090;4.312;2023-01-08T13:25:07;3.1;;;1;;
67685;SDS011;54469;52.090;4.312;2023-01-08T13:30:28;3.1;;;1;;
67685;SDS011;54469;52.090;4.312;2023-01-08T13:35:17;3.1;;;1;;
67685;SDS011;54469;52.090;4.312;2023-01-08T13:40:03;3.1;;;1;;
67685;SDS011;54469;52.090;4.312;2023-01-08T13:45:03;6.9;;;1.5;;
67685;SDS011;54469;52.090;4.312;2023-01-08T13:50:03;4.2;;;1.1;;
67685;SDS011;54469;52.090;4.312;2023-01-08T13:55:03;4.2;;;1.1;;
67685;SDS011;54469;52.090;4.312;2023-01-08T14:00:03;4.2;;;1.1;;
67685;SDS011;54469;52.090;4.312;2023-01-08T14:05:10;4.2;;;1.1;;
67685;SDS011;54469;52.090;4.312;2023-01-08T14:10:05;9.1;;;1.4;;
67685;SDS011;54469;52.090;4.312;2023-01-08T14:15:02;4.3;;;1;;
67685;SDS011;54469;52.090;4.312;2023-01-08T14:20:08;4.3;;;1;;
67685;SDS011;54469;52.090;4.312;2023-01-08T14:25:03;4.3;;;1;;
67685;SDS011;54469;52.090;4.312;2023-01-08T14:30:12;4.3;;;1;;
67685;SDS011;54469;52.090;4.312;2023-01-08T14:35:03;4.3;;;1;;
67685;SDS011;54469;52.090;4.312;2023-01-08T14:40:12;4.3;;;1;;
67685;SDS011;54469;52.090;4.312;2023-01-08T14:45:03;4.3;;;1;;
67685;SDS011;54469;52.090;4.312;2023-01-08T14:50:02;6.9;;;1.6;;
67685;SDS011;54469;52.090;4.312;2023-01-08T14:55:02;4.8;;;1.3;;
67685;SDS011;54469;52.090;4.312;2023-01-08T15:00:02;4.8;;;1.3;;
67685;SDS011;54469;52.090;4.312;2023-01-08T15:05:11;4.8;;;1.3;;
67685;SDS011;54469;52.090;4.312;2023-01-08T15:10:03;7.3;;;1.7;;
67685;SDS011;54469;52.090;4.312;2023-01-08T15:15:10;4.9;;;1.4;;
67685;SDS011;54469;52.090;4.312;2023-01-08T15:20:03;4.9;;;1.4;;
67685;SDS011;54469;52.090;4.312;2023-01-08T15:25:03;4.9;;;1.4;;
67685;SDS011;54469;52.090;4.312;2023-01-08T15:30:02;4.9;;;1.4;;
67685;SDS011;54469;52.090;4.312;2023-01-08T15:35:03;4.9;;;1.4;;
67685;SDS011;54469;52.090;4.312;2023-01-08T15:40:03;4.9;;;1.4;;
67685;SDS011;54469;52.090;4.312;2023-01-08T15:45:03;8.199999999999998;;;1.5;;
67685;SDS011;54469;52.090;4.312;2023-01-08T15:50:02;5.1;;;1.4;;
67685;SDS011;54469;52.090;4.312;2023-01-08T15:55:03;5.1;;;1.4;;
67685;SDS011;54469;52.090;4.312;2023-01-08T16:00:03;5.1;;;1.4;;
67685;SDS011;54469;52.090;4.312;2023-01-08T16:05:03;5.1;;;1.4;;
67685;SDS011;54469;52.090;4.312;2023-01-08T16:10:03;5.1;;;1.4;;
67685;SDS011;54469;52.090;4.312;2023-01-08T16:15:02;5.1;;;1.4;;
67685;SDS011;54469;52.090;4.312;2023-01-08T16:20:02;9.1;;;1.5;;
67685;SDS011;54469;52.090;4.312;2023-01-08T16:25:03;4.7;;;1;;
67685;SDS011;54469;52.090;4.312;2023-01-08T16:30:03;4.7;;;1;;
67685;SDS011;54469;52.090;4.312;2023-01-08T16:35:02;4.7;;;1;;
67685;SDS011;54469;52.090;4.312;2023-01-08T16:40:03;8.6;;;1.7;;
67685;SDS011;54469;52.090;4.312;2023-01-08T16:45:03;8.6;;;1.7;;
67685;SDS011;54469;52.090;4.312;2023-01-08T16:50:03;8.6;;;1.7;;
67685;SDS011;54469;52.090;4.312;2023-01-08T16:55:03;6.4;;;1.3;;
67685;SDS011;54469;52.090;4.312;2023-01-08T17:00:02;9.699999999999998;;;1.4;;
67685;SDS011;54469;52.090;4.312;2023-01-08T17:05:02;5.2;;;1.2;;
67685;SDS011;54469;52.090;4.312;2023-01-08T17:10:03;5.2;;;1.2;;
67685;SDS011;54469;52.090;4.312;2023-01-08T17:15:03;5.2;;;1.2;;
67685;SDS011;54469;52.090;4.312;2023-01-08T17:20:03;8.4;;;1.9;;
67685;SDS011;54469;52.090;4.312;2023-01-08T17:25:03;8.4;;;1.9;;
67685;SDS011;54469;52.090;4.312;2023-01-08T17:30:03;5.9;;;1.4;;
67685;SDS011;54469;52.090;4.312;2023-01-08T17:35:03;10.9;;;1.8;;
67685;SDS011;54469;52.090;4.312;2023-01-08T17:40:02;5.1;;;1.3;;
67685;SDS011;54469;52.090;4.312;2023-01-08T17:45:03;7.4;;;1.5;;
67685;SDS011;54469;52.090;4.312;2023-01-08T17:50:03;7.4;;;1.5;;
67685;SDS011;54469;52.090;4.312;2023-01-08T17:55:03;9.6;;;1.9;;
67685;SDS011;54469;52.090;4.312;2023-01-08T18:00:03;6.5;;;1.7;;
67685;SDS011;54469;52.090;4.312;2023-01-08T18:05:03;6.5;;;1.7;;
67685;SDS011;54469;52.090;4.312;2023-01-08T18:10:02;6.5;;;1.7;;
67685;SDS011;54469;52.090;4.312;2023-01-08T18:15:02;6.5;;;1.7;;
67685;SDS011;54469;52.090;4.312;2023-01-08T18:20:02;6.5;;;1.7;;
67685;SDS011;54469;52.090;4.312;2023-01-08T18:25:03;4;;;1.3;;
67685;SDS011;54469;52.090;4.312;2023-01-08T18:30:02;4;;;1.3;;
67685;SDS011;54469;52.090;4.312;2023-01-08T18:35:02;7;;;1.9;;
67685;SDS011;54469;52.090;4.312;2023-01-08T18:40:03;7;;;1.9;;
67685;SDS011;54469;52.090;4.312;2023-01-08T18:45:03;7;;;1.9;;
67685;SDS011;54469;52.090;4.312;2023-01-08T18:50:03;4.9;;;1.3;;
67685;SDS011;54469;52.090;4.312;2023-01-08T18:55:02;4.9;;;1.3;;
67685;SDS011;54469;52.090;4.312;2023-01-08T19:00:02;4.9;;;1.3;;
67685;SDS011;54469;52.090;4.312;2023-01-08T19:05:03;13.5;;;2.5;;
67685;SDS011;54469;52.090;4.312;2023-01-08T19:10:03;3.1;;;1.2;;
67685;SDS011;54469;52.090;4.312;2023-01-08T19:15:02;3.1;;;1.2;;
67685;SDS011;54469;52.090;4.312;2023-01-08T19:20:02;5.3;;;1.3;;
67685;SDS011;54469;52.090;4.312;2023-01-08T19:25:03;5.3;;;1.3;;
67685;SDS011;54469;52.090;4.312;2023-01-08T19:30:02;5.3;;;1.3;;
67685;SDS011;54469;52.090;4.312;2023-01-08T19:35:07;5.3;;;1.3;;
67685;SDS011;54469;52.090;4.312;2023-01-08T19:40:03;5.3;;;1.3;;
67685;SDS011;54469;52.090;4.312;2023-01-08T19:45:03;5.3;;;1.3;;
67685;SDS011;54469;52.090;4.312;2023-01-08T19:50:03;8.1;;;1.6;;
67685;SDS011;54469;52.090;4.312;2023-01-08T19:55:03;8.1;;;1.6;;
67685;SDS011;54469;52.090;4.312;2023-01-08T20:00:03;4.7;;;1.2;;
67685;SDS011;54469;52.090;4.312;2023-01-08T20:05:03;6.8;;;1.9;;
67685;SDS011;54469;52.090;4.312;2023-01-08T20:10:03;6.8;;;1.9;;
67685;SDS011;54469;52.090;4.312;2023-01-08T20:15:02;4;;;1.2;;
67685;SDS011;54469;52.090;4.312;2023-01-08T20:20:02;4;;;1.2;;
67685;SDS011;54469;52.090;4.312;2023-01-08T20:25:03;7.8;;;2.1;;
67685;SDS011;54469;52.090;4.312;2023-01-08T20:30:03;7.8;;;2.1;;
67685;SDS011;54469;52.090;4.312;2023-01-08T20:35:02;3.9;;;1.3;;
67685;SDS011;54469;52.090;4.312;2023-01-08T20:40:03;3.9;;;1.3;;
67685;SDS011;54469;52.090;4.312;2023-01-08T20:45:03;3.9;;;1.3;;
67685;SDS011;54469;52.090;4.312;2023-01-08T20:50:03;3.9;;;1.3;;
67685;SDS011;54469;52.090;4.312;2023-01-08T20:55:02;3.9;;;1.3;;
67685;SDS011;54469;52.090;4.312;2023-01-08T21:00:02;3.9;;;1.3;;
67685;SDS011;54469;52.090;4.312;2023-01-08T21:05:03;3.9;;;1.3;;
67685;SDS011;54469;52.090;4.312;2023-01-08T21:10:02;3.9;;;1.3;;
67685;SDS011;54469;52.090;4.312;2023-01-08T21:15:02;3.9;;;1.3;;
67685;SDS011;54469;52.090;4.312;2023-01-08T21:20:03;3.9;;;1.3;;
67685;SDS011;54469;52.090;4.312;2023-01-08T21:25:03;3.9;;;1.3;;
67685;SDS011;54469;52.090;4.312;2023-01-08T21:30:03;3.9;;;1.3;;
67685;SDS011;54469;52.090;4.312;2023-01-08T21:35:08;6.3;;;1.2;;
67685;SDS011;54469;52.090;4.312;2023-01-08T21:40:03;3.5;;;1.4;;
67685;SDS011;54469;52.090;4.312;2023-01-08T21:45:03;3.5;;;1.4;;
67685;SDS011;54469;52.090;4.312;2023-01-08T21:50:03;3.5;;;1.4;;
67685;SDS011;54469;52.090;4.312;2023-01-08T21:55:03;3.5;;;1.4;;
67685;SDS011;54469;52.090;4.312;2023-01-08T22:00:03;3.5;;;1.4;;
67685;SDS011;54469;52.090;4.312;2023-01-08T22:05:03;1;;;0.3;;
67685;SDS011;54469;52.090;4.312;2023-01-08T22:10:02;1;;;0.3;;
67685;SDS011;54469;52.090;4.312;2023-01-08T22:15:03;1;;;0.3;;
67685;SDS011;54469;52.090;4.312;2023-01-08T22:20:03;3.7;;;0.8;;
67685;SDS011;54469;52.090;4.312;2023-01-08T22:25:02;1.5;;;0.8;;
67685;SDS011;54469;52.090;4.312;2023-01-08T22:30:03;1.5;;;0.8;;
67685;SDS011;54469;52.090;4.312;2023-01-08T22:35:03;1.5;;;0.8;;
67685;SDS011;54469;52.090;4.312;2023-01-08T22:40:03;1.5;;;0.8;;
67685;SDS011;54469;52.090;4.312;2023-01-08T22:45:03;4.3;;;0.5;;
67685;SDS011;54469;52.090;4.312;2023-01-08T22:50:03;1.4;;;0.5;;
67685;SDS011;54469;52.090;4.312;2023-01-08T22:55:02;1.4;;;0.5;;
67685;SDS011;54469;52.090;4.312;2023-01-08T23:00:03;4;;;0.6;;
67685;SDS011;54469;52.090;4.312;2023-01-08T23:05:02;1.1;;;0.4;;
67685;SDS011;54469;52.090;4.312;2023-01-08T23:10:02;1.1;;;0.4;;
67685;SDS011;54469;52.090;4.312;2023-01-08T23:15:03;6;;;0.9;;
67685;SDS011;54469;52.090;4.312;2023-01-08T23:20:03;3.7;;;0.5;;
67685;SDS011;54469;52.090;4.312;2023-01-08T23:25:03;3.7;;;0.5;;
67685;SDS011;54469;52.090;4.312;2023-01-08T23:30:03;6.6;;;0.8;;
67685;SDS011;54469;52.090;4.312;2023-01-08T23:35:03;4.1;;;0.9;;
67685;SDS011;54469;52.090;4.312;2023-01-08T23:40:03;4.1;;;0.9;;
67685;SDS011;54469;52.090;4.312;2023-01-08T23:45:02;4.1;;;0.9;;
67685;SDS011;54469;52.090;4.312;2023-01-08T23:50:02;4.1;;;0.9;;
67685;SDS011;54469;52.090;4.312;2023-01-08T23:55:03;4.1;;;0.9;;
